Time;durP1;ratioP1;P1;durP2;ratioP2;P2;SDS_P1;SDS_P2;PMS_P1;PMS_P2;Temp;Humidity;BMP_temperature;BMP_pressure;BME280_temperature;BME280_humidity;BME280_pressure;Samples;Min_cycle;Max_cycle;Signal;HPM_P1;HPM_P2
2022/02/26 00:01:36;;;;;;;11.43;5.20;;;;;;;1.06;63.40;99410.72;5115739;27;20042;-40
2022/02/26 00:04:02;;;;;;;9.27;5.13;;;;;;;1.12;62.94;99420.09;5133997;27;20047;-41
2022/02/26 00:06:28;;;;;;;11.93;5.10;;;;;;;1.23;62.52;99414.13;5094599;28;20044;-41
2022/02/26 00:08:54;;;;;;;8.23;4.65;;;;;;;1.24;62.67;99417.53;5095406;28;20404;-40
2022/02/26 00:11:20;;;;;;;6.85;3.25;;;;;;;1.24;62.87;99422.66;5095528;28;20042;-40
2022/02/26 00:13:45;;;;;;;9.10;4.03;;;;;;;1.12;62.99;99413.28;5095333;28;20503;-40
2022/02/26 00:16:11;;;;;;;9.50;3.78;;;;;;;1.04;62.92;99407.31;5080545;27;20038;-39
2022/02/26 00:18:37;;;;;;;12.60;5.18;;;;;;;1.03;62.92;99403.03;5093961;28;20048;-41
2022/02/26 00:21:02;;;;;;;10.27;5.22;;;;;;;1.16;63.28;99409.84;5101434;27;20502;-41
2022/02/26 00:23:29;;;;;;;9.75;5.03;;;;;;;1.17;63.18;99418.38;5133296;27;20054;-40
2022/02/26 00:25:55;;;;;;;9.05;4.88;;;;;;;1.19;63.19;99422.66;5132640;27;20042;-39
2022/02/26 00:28:22;;;;;;;9.95;4.32;;;;;;;1.14;63.02;99410.72;5114129;27;20142;-39
2022/02/26 00:30:49;;;;;;;10.65;5.72;;;;;;;1.10;63.05;99412.41;5133289;27;20391;-40
2022/02/26 00:33:15;;;;;;;10.02;4.65;;;;;;;1.19;63.13;99420.09;5131662;27;20050;-39
2022/02/26 00:35:41;;;;;;;11.85;5.70;;;;;;;1.24;62.80;99420.94;5132178;27;20058;-40
2022/02/26 00:38:07;;;;;;;10.48;4.60;;;;;;;1.10;63.20;99403.91;5131263;27;20043;-40
2022/02/26 00:40:33;;;;;;;8.57;3.65;;;;;;;1.15;63.26;99428.63;5133091;27;20039;-41
2022/02/26 00:43:00;;;;;;;3.50;2.45;;;;;;;1.09;63.38;99428.66;5131020;27;20410;-40
2022/02/26 00:45:26;;;;;;;8.20;4.47;;;;;;;1.09;63.38;99425.22;5132010;27;20041;-40
2022/02/26 00:47:52;;;;;;;12.45;5.22;;;;;;;1.17;63.25;99424.34;5132275;27;20126;-40
2022/02/26 00:50:18;;;;;;;10.82;4.95;;;;;;;1.26;62.84;99413.25;5132551;27;20054;-39
2022/02/26 00:52:43;;;;;;;9.23;4.85;;;;;;;1.31;62.51;99423.50;5132381;27;20096;-40
2022/02/26 00:55:10;;;;;;;10.38;3.92;;;;;;;1.25;63.28;99427.78;5131995;27;20039;-40
2022/02/26 00:57:35;;;;;;;10.00;4.88;;;;;;;1.18;63.01;99414.97;5113488;27;20134;-39
2022/02/26 01:00:04;;;;;;;10.15;4.97;;;;;;;1.29;63.07;99433.75;5114316;27;20133;-40
2022/02/26 01:02:30;;;;;;;11.13;4.10;;;;;;;1.25;63.48;99420.09;5131261;27;20039;-40
2022/02/26 01:04:56;;;;;;;10.45;5.25;;;;;;;1.20;63.18;99411.53;5132508;27;20471;-41
2022/02/26 01:07:21;;;;;;;12.90;5.45;;;;;;;1.15;63.05;99394.50;5131814;27;20047;-39
2022/02/26 01:09:47;;;;;;;9.55;4.05;;;;;;;1.23;63.17;99423.50;5114006;27;20474;-39
2022/02/26 01:12:13;;;;;;;10.77;3.72;;;;;;;1.28;63.12;99420.09;5131996;27;20498;-38
2022/02/26 01:14:39;;;;;;;8.82;4.25;;;;;;;1.26;63.08;99429.47;5096604;27;20043;-39
2022/02/26 01:17:07;;;;;;;9.70;4.82;;;;;;;1.24;62.98;99426.06;5131668;27;20077;-39
2022/02/26 01:19:33;;;;;;;11.25;4.90;;;;;;;1.23;63.50;99421.78;5113584;27;20510;-39
2022/02/26 01:21:58;;;;;;;12.57;5.10;;;;;;;1.34;62.88;99426.03;5131610;27;20039;-40
2022/02/26 01:24:24;;;;;;;10.93;4.82;;;;;;;1.32;62.87;99414.94;5131928;27;20042;-40
2022/02/26 01:26:50;;;;;;;11.55;4.55;;;;;;;1.42;62.73;99435.41;5131572;27;20031;-39
2022/02/26 01:29:16;;;;;;;8.50;3.83;;;;;;;1.23;62.94;99423.50;5131910;27;20156;-40
2022/02/26 01:31:41;;;;;;;9.63;4.25;;;;;;;1.02;63.25;99396.22;5113369;27;20035;-40
2022/02/26 01:34:08;;;;;;;8.45;4.38;;;;;;;1.06;63.83;99428.63;5113348;27;20134;-40
2022/02/26 01:36:34;;;;;;;10.05;4.80;;;;;;;1.18;63.56;99430.34;5131953;27;20121;-39
2022/02/26 01:39:01;;;;;;;8.38;2.67;;;;;;;1.13;63.20;99411.56;5113005;27;20134;-39
2022/02/26 01:41:31;;;;;;;11.88;4.85;;;;;;;1.34;63.09;99432.03;5130918;27;20150;-39
2022/02/26 01:43:58;;;;;;;14.25;5.50;;;;;;;1.27;62.94;99405.56;5112279;27;20150;-39
2022/02/26 01:46:23;;;;;;;10.23;5.13;;;;;;;1.42;63.07;99430.28;5131712;27;20043;-39
2022/02/26 01:48:50;;;;;;;8.63;4.70;;;;;;;1.27;63.21;99423.50;5131162;27;20031;-40
2022/02/26 01:51:16;;;;;;;9.52;4.03;;;;;;;1.33;63.22;99434.59;5113062;27;20394;-39
2022/02/26 01:53:42;;;;;;;11.55;4.30;;;;;;;1.37;63.48;99432.00;5131086;27;20054;-40
2022/02/26 01:56:08;;;;;;;12.98;4.70;;;;;;;1.37;63.54;99428.59;5130931;27;20043;-39
2022/02/26 01:58:34;;;;;;;12.77;4.53;;;;;;;1.33;63.69;99429.47;5131111;27;20039;-39
2022/02/26 02:01:00;;;;;;;8.68;4.53;;;;;;;1.35;63.49;99440.56;5112598;27;20472;-39
2022/02/26 02:03:26;;;;;;;8.50;4.82;;;;;;;1.26;63.90;99442.25;5131129;27;20811;-39
2022/02/26 02:05:54;;;;;;;11.30;4.88;;;;;;;1.30;63.56;99443.13;5131592;28;20057;-39
2022/02/26 02:08:21;;;;;;;8.95;4.75;;;;;;;1.33;63.65;99442.25;5112592;28;20130;-39
2022/02/26 02:10:49;;;;;;;4.07;2.67;;;;;;;1.31;63.46;99449.94;5131372;28;20107;-38
2022/02/26 02:13:15;;;;;;;9.93;4.65;;;;;;;1.28;63.80;99439.72;5113217;28;20460;-40
2022/02/26 02:15:42;;;;;;;11.25;5.38;;;;;;;1.33;63.72;99442.25;5112750;28;20047;-39
2022/02/26 02:18:11;;;;;;;10.57;4.65;;;;;;;1.37;64.03;99436.28;5130703;28;20042;-39
2022/02/26 02:20:38;;;;;;;12.80;5.13;;;;;;;1.37;63.77;99441.41;5104596;28;20485;-38
2022/02/26 02:23:03;;;;;;;8.88;4.80;;;;;;;1.33;63.69;99427.75;5130938;28;20028;-39
2022/02/26 02:25:32;;;;;;;10.07;4.50;;;;;;;1.51;63.92;99445.66;5130871;28;20042;-38
2022/02/26 02:27:58;;;;;;;7.00;3.50;;;;;;;1.44;63.89;99448.22;5131296;28;20074;-39
2022/02/26 02:30:25;;;;;;;8.52;4.20;;;;;;;1.32;64.45;99451.66;5131264;28;20043;-39
2022/02/26 02:32:51;;;;;;;11.05;4.78;;;;;;;1.21;64.23;99436.28;5131012;28;20074;-39
2022/02/26 02:35:25;;;;;;;8.85;4.75;;;;;;;1.27;64.74;99464.47;5131479;28;20047;-39
2022/02/26 02:37:51;;;;;;;8.30;3.60;;;;;;;1.24;65.07;99461.06;5129389;28;20047;-40
2022/02/26 02:40:16;;;;;;;7.22;4.10;;;;;;;1.19;65.00;99465.31;5131076;28;20046;-39
2022/02/26 02:42:42;;;;;;;9.32;4.97;;;;;;;1.17;65.12;99459.34;5130449;28;20042;-40
2022/02/26 02:45:08;;;;;;;11.63;4.97;;;;;;;1.05;65.59;99442.28;5130621;28;20068;-40
2022/02/26 02:47:34;;;;;;;11.02;5.05;;;;;;;1.05;65.21;99439.72;5129149;27;20107;-39
2022/02/26 02:50:00;;;;;;;5.68;3.40;;;;;;;1.19;64.95;99466.19;5112340;28;20050;-39
2022/02/26 02:52:26;;;;;;;7.25;3.95;;;;;;;1.16;65.18;99473.84;5112964;27;20618;-39
2022/02/26 02:54:51;;;;;;;10.82;4.60;;;;;;;1.19;65.29;99478.13;5134881;27;20043;-39
2022/02/26 02:57:18;;;;;;;11.77;4.85;;;;;;;1.10;65.14;99445.69;5134020;27;20529;-40
2022/02/26 02:59:44;;;;;;;10.02;5.80;;;;;;;1.23;65.28;99473.00;5116226;27;20038;-39
2022/02/26 03:02:10;;;;;;;11.73;5.68;;;;;;;1.24;65.14;99477.28;5134324;27;20530;-40
2022/02/26 03:04:35;;;;;;;9.55;4.55;;;;;;;1.21;65.33;99482.38;5134495;27;20059;-40
2022/02/26 03:07:01;;;;;;;7.53;3.80;;;;;;;1.10;65.54;99473.03;5134564;27;20082;-40
2022/02/26 03:09:28;;;;;;;11.52;4.65;;;;;;;1.07;65.96;99466.19;5116204;27;20039;-40
2022/02/26 03:11:53;;;;;;;8.63;4.78;;;;;;;1.09;65.76;99469.59;5115732;27;20042;-41
2022/02/26 03:14:19;;;;;;;8.35;4.43;;;;;;;1.11;66.04;99467.88;5134222;27;20043;-40
2022/02/26 03:16:44;;;;;;;10.07;4.10;;;;;;;1.09;65.77;99467.03;5134039;27;20037;-39
2022/02/26 03:19:10;;;;;;;12.00;5.30;;;;;;;1.09;65.83;99450.81;5134136;27;20043;-38
2022/02/26 03:21:39;;;;;;;11.10;5.10;;;;;;;1.05;66.35;99446.53;5134025;27;20398;-40
2022/02/26 03:24:08;;;;;;;16.30;5.95;;;;;;;1.09;66.25;99450.81;5134322;27;20035;-40
2022/02/26 03:26:34;;;;;;;12.05;6.20;;;;;;;1.10;66.26;99455.09;5133565;27;20046;-39
2022/02/26 03:29:00;;;;;;;9.05;4.72;;;;;;;1.03;66.40;99436.31;5132312;27;20046;-39
2022/02/26 03:31:26;;;;;;;8.40;4.85;;;;;;;1.12;66.05;99468.72;5133557;27;20045;-39
2022/02/26 03:33:51;;;;;;;10.32;4.55;;;;;;;1.08;66.32;99465.31;5134056;27;20035;-39
2022/02/26 03:36:17;;;;;;;12.00;5.50;;;;;;;1.01;67.06;99466.16;5134408;27;20048;-39
2022/02/26 03:38:43;;;;;;;7.70;3.97;;;;;;;1.03;67.02;99468.75;5133261;27;20043;-40
2022/02/26 03:41:14;;;;;;;5.45;3.38;;;;;;;0.99;67.53;99478.13;5134241;27;20030;-40
2022/02/26 03:43:41;;;;;;;6.28;2.88;;;;;;;0.97;67.70;99495.19;5123433;27;20043;-40
2022/02/26 03:46:07;;;;;;;9.75;3.88;;;;;;;0.91;68.35;99497.72;5114491;27;20088;-39
2022/02/26 03:48:33;;;;;;;9.45;5.25;;;;;;;0.84;68.16;99485.75;5115265;27;20135;-38
2022/02/26 03:51:04;;;;;;;8.80;4.68;;;;;;;0.99;68.45;99503.72;5133911;27;20086;-39
2022/02/26 03:53:31;;;;;;;11.57;4.85;;;;;;;0.99;68.31;99506.28;5133598;27;20050;-39
2022/02/26 03:55:57;;;;;;;11.05;5.45;;;;;;;0.96;68.61;99510.53;5115507;27;20038;-45
2022/02/26 03:58:23;;;;;;;12.77;5.70;;;;;;;0.96;68.78;99510.53;5115133;27;20039;-40
2022/02/26 04:00:49;;;;;;;13.20;6.38;;;;;;;0.98;68.56;99521.63;5133371;27;20131;-40
2022/02/26 04:03:15;;;;;;;12.68;5.60;;;;;;;0.98;69.08;99534.44;5132129;27;20434;-39
2022/02/26 04:05:40;;;;;;;9.98;5.50;;;;;;;1.00;68.75;99541.25;5133633;27;20039;-40
2022/02/26 04:08:06;;;;;;;10.25;4.75;;;;;;;0.93;69.12;99544.66;5128351;27;20039;-40
2022/02/26 04:10:32;;;;;;;11.52;5.80;;;;;;;1.00;69.35;99551.47;5133148;27;20126;-40
2022/02/26 04:12:58;;;;;;;11.27;5.78;;;;;;;1.05;69.01;99547.22;5132805;27;20463;-39
2022/02/26 04:15:24;;;;;;;10.65;5.38;;;;;;;1.11;69.10;99557.47;5133748;27;20030;-40
2022/02/26 04:17:50;;;;;;;10.10;5.22;;;;;;;1.12;68.98;99555.78;5093505;28;20119;-41
2022/02/26 04:20:15;;;;;;;8.45;4.47;;;;;;;1.17;68.80;99560.03;5128098;27;20100;-40
2022/02/26 04:22:41;;;;;;;8.18;4.47;;;;;;;1.10;69.17;99549.81;5132702;27;20035;-39
2022/02/26 04:25:07;;;;;;;10.20;6.18;;;;;;;1.09;69.53;99554.09;5114415;27;20043;-39
2022/02/26 04:27:33;;;;;;;11.52;6.18;;;;;;;1.15;69.17;99555.78;5132496;27;20133;-40
2022/02/26 04:29:59;;;;;;;14.48;6.03;;;;;;;1.07;69.96;99549.78;5132491;27;20138;-39
2022/02/26 04:32:25;;;;;;;12.88;5.72;;;;;;;1.00;70.01;99542.94;5132872;27;20554;-39
2022/02/26 04:34:51;;;;;;;13.68;6.07;;;;;;;0.88;70.68;99538.69;5132809;27;20103;-39
2022/02/26 04:37:20;;;;;;;14.63;5.85;;;;;;;1.04;70.30;99547.25;5114373;27;20062;-40
2022/02/26 04:39:47;;;;;;;11.10;5.10;;;;;;;1.16;70.13;99557.47;5130521;27;20039;-40
2022/02/26 04:42:13;;;;;;;10.60;5.18;;;;;;;1.07;70.02;99548.09;5132020;27;20039;-40
2022/02/26 04:44:38;;;;;;;15.65;6.88;;;;;;;1.09;69.98;99548.97;5132471;27;20039;-40
2022/02/26 04:47:05;;;;;;;13.90;6.63;;;;;;;1.17;69.82;99559.19;5132559;27;20042;-39
2022/02/26 04:49:30;;;;;;;13.05;6.25;;;;;;;1.22;69.77;99575.41;5132111;27;20087;-40
2022/02/26 04:51:56;;;;;;;10.40;5.60;;;;;;;1.11;70.69;99574.53;5131795;27;20074;-39
2022/02/26 04:54:22;;;;;;;13.68;6.45;;;;;;;1.07;70.51;99571.13;5132360;27;20093;-40
2022/02/26 04:56:47;;;;;;;8.57;4.30;;;;;;;1.18;70.80;99586.50;5131950;27;20095;-40
2022/02/26 04:59:13;;;;;;;13.30;6.57;;;;;;;1.23;70.38;99583.09;5130693;27;20168;-38
2022/02/26 05:01:39;;;;;;;13.18;6.97;;;;;;;1.31;70.19;99572.84;5114114;27;20042;-40
2022/02/26 05:04:04;;;;;;;14.05;6.95;;;;;;;1.48;70.14;99588.25;5113401;27;20099;-40
2022/02/26 05:06:30;;;;;;;13.75;6.07;;;;;;;1.48;69.61;99572.88;5113276;27;20599;-40
2022/02/26 05:08:56;;;;;;;13.15;6.45;;;;;;;1.63;69.25;99593.38;5132016;27;20081;-39
2022/02/26 05:11:22;;;;;;;7.93;4.07;;;;;;;1.61;69.47;99589.97;5131642;27;20533;-40
2022/02/26 05:13:47;;;;;;;11.80;6.43;;;;;;;1.59;69.92;99583.97;5131867;27;20535;-39
2022/02/26 05:16:13;;;;;;;14.10;6.22;;;;;;;1.80;69.27;99589.09;5131187;27;20046;-40
2022/02/26 05:18:40;;;;;;;13.10;6.95;;;;;;;1.99;68.67;99589.94;5112960;27;20047;-40
2022/02/26 05:21:05;;;;;;;14.43;6.38;;;;;;;1.92;68.84;99608.75;5131865;27;20039;-39
2022/02/26 05:23:31;;;;;;;13.00;6.13;;;;;;;2.01;68.41;99606.16;5131875;27;20058;-41
2022/02/26 05:25:57;;;;;;;14.82;6.43;;;;;;;1.94;68.40;99583.94;5113361;27;20042;-38
2022/02/26 05:28:23;;;;;;;13.60;5.72;;;;;;;2.06;68.39;99612.13;5130499;27;20039;-40
2022/02/26 05:30:48;;;;;;;14.98;6.50;;;;;;;2.08;68.41;99618.13;5131382;27;20035;-39
2022/02/26 05:33:14;;;;;;;14.02;6.50;;;;;;;2.10;68.26;99617.25;5131319;27;20043;-40
2022/02/26 05:35:40;;;;;;;14.45;6.43;;;;;;;2.16;68.10;99615.53;5131865;27;20514;-39
2022/02/26 05:38:05;;;;;;;13.98;5.78;;;;;;;2.14;68.17;99607.88;5131530;27;20046;-39
2022/02/26 05:40:31;;;;;;;13.15;7.15;;;;;;;2.10;68.23;99613.84;5131563;27;20055;-42
2022/02/26 05:42:58;;;;;;;17.15;6.32;;;;;;;2.04;68.50;99626.69;5112763;27;20050;-40
2022/02/26 05:45:24;;;;;;;11.82;6.28;;;;;;;2.17;68.44;99619.81;5131519;27;20050;-40
2022/02/26 05:47:49;;;;;;;12.05;6.07;;;;;;;2.13;68.04;99612.16;5131421;27;20074;-39
2022/02/26 05:50:15;;;;;;;12.68;6.20;;;;;;;2.29;67.79;99633.47;5131642;27;20045;-39
2022/02/26 05:52:41;;;;;;;14.18;6.43;;;;;;;2.35;67.81;99630.06;5130006;27;20079;-40
2022/02/26 05:55:08;;;;;;;12.73;5.07;;;;;;;2.44;67.49;99643.72;5112896;27;20035;-40
2022/02/26 05:57:33;;;;;;;12.50;6.30;;;;;;;2.56;67.64;99637.69;5130973;27;20067;-39
2022/02/26 05:59:59;;;;;;;14.75;6.43;;;;;;;2.69;67.04;99635.94;5088171;28;20071;-40
2022/02/26 06:02:24;;;;;;;9.70;5.30;;;;;;;2.55;67.21;99652.25;5129341;27;20129;-41
2022/02/26 06:04:50;;;;;;;12.73;5.50;;;;;;;2.49;67.35;99646.25;5131335;27;20077;-39
2022/02/26 06:07:16;;;;;;;11.45;4.65;;;;;;;2.50;67.50;99653.09;5130603;27;20043;-40
2022/02/26 06:09:41;;;;;;;9.93;5.25;;;;;;;2.37;67.86;99662.53;5130729;27;20039;-41
2022/02/26 06:12:07;;;;;;;13.43;5.35;;;;;;;2.34;68.00;99651.44;5130675;28;20095;-39
2022/02/26 06:14:33;;;;;;;10.18;5.45;;;;;;;2.31;68.33;99659.97;5131485;28;20043;-40
2022/02/26 06:16:59;;;;;;;12.30;5.22;;;;;;;2.44;68.08;99659.09;5100022;28;20039;-41
2022/02/26 06:19:25;;;;;;;17.80;6.28;;;;;;;2.55;67.58;99675.34;5121385;28;20046;-40
2022/02/26 06:21:51;;;;;;;11.25;6.22;;;;;;;2.59;67.52;99670.19;5131382;28;20541;-40
2022/02/26 06:24:17;;;;;;;13.05;5.43;;;;;;;2.71;67.25;99683.00;5130927;28;20418;-39
2022/02/26 06:26:43;;;;;;;13.77;5.85;;;;;;;2.87;67.20;99685.50;5132144;27;20042;-40
2022/02/26 06:29:09;;;;;;;14.30;5.78;;;;;;;2.81;66.80;99676.97;5135240;27;20039;-40
2022/02/26 06:31:35;;;;;;;19.25;5.55;;;;;;;2.74;66.96;99688.97;5131330;27;20091;-39
2022/02/26 06:34:00;;;;;;;19.42;6.43;;;;;;;2.65;67.39;99695.84;5099148;27;20039;-41
2022/02/26 06:36:26;;;;;;;11.55;5.65;;;;;;;2.60;67.66;99707.81;5132564;27;20419;-40
2022/02/26 06:38:52;;;;;;;11.90;5.70;;;;;;;2.53;67.59;99697.56;5133234;27;20556;-39
2022/02/26 06:41:17;;;;;;;15.77;5.90;;;;;;;2.49;67.96;99702.72;5128774;27;20074;-39
2022/02/26 06:43:43;;;;;;;10.60;5.88;;;;;;;2.46;68.05;99697.59;5115925;27;20042;-39
2022/02/26 06:46:11;;;;;;;11.60;6.07;;;;;;;2.55;67.84;99695.00;5134204;27;20038;-40
2022/02/26 06:48:37;;;;;;;9.32;5.50;;;;;;;2.63;68.00;99702.66;5116497;27;20458;-40
2022/02/26 06:51:03;;;;;;;12.15;6.82;;;;;;;2.87;67.33;99702.63;5116369;27;20066;-39
2022/02/26 06:53:29;;;;;;;11.85;6.00;;;;;;;2.91;66.86;99706.88;5131951;27;20190;-39
2022/02/26 06:55:54;;;;;;;11.25;5.63;;;;;;;2.88;67.04;99707.72;5111303;27;20524;-39
2022/02/26 06:58:20;;;;;;;14.20;5.88;;;;;;;2.84;67.04;99706.03;5134477;27;20084;-43
2022/02/26 07:00:46;;;;;;;11.32;5.63;;;;;;;2.93;67.35;99718.84;5142474;27;20043;-42
2022/02/26 07:03:12;;;;;;;9.68;4.50;;;;;;;3.00;66.73;99709.41;5114852;27;20054;-43
2022/02/26 07:05:37;;;;;;;9.73;5.72;;;;;;;3.01;66.87;99716.25;5100894;27;20517;-42
2022/02/26 07:08:04;;;;;;;15.18;5.40;;;;;;;3.19;66.41;99726.44;5116850;27;20047;-42
2022/02/26 07:10:31;;;;;;;9.60;5.18;;;;;;;3.15;66.60;99724.75;5119063;27;20075;-42
2022/02/26 07:12:57;;;;;;;9.27;5.25;;;;;;;3.10;66.31;99731.63;5119248;27;20159;-42
2022/02/26 07:15:23;;;;;;;10.18;5.22;;;;;;;3.19;66.31;99734.16;5125973;27;20035;-41
2022/02/26 07:17:48;;;;;;;11.60;5.20;;;;;;;3.15;66.01;99729.91;5145971;27;20039;-42
2022/02/26 07:20:14;;;;;;;9.70;4.93;;;;;;;3.21;66.21;99734.16;5119985;27;20035;-45
2022/02/26 07:22:40;;;;;;;11.20;5.03;;;;;;;3.18;65.98;99731.63;5140731;27;20039;-42
2022/02/26 07:25:07;;;;;;;13.75;5.20;;;;;;;3.12;66.30;99731.63;5116172;27;20160;-42
2022/02/26 07:27:33;;;;;;;18.25;5.60;;;;;;;3.26;66.11;99741.00;5119115;27;20129;-40
2022/02/26 07:29:59;;;;;;;9.43;4.72;;;;;;;3.23;65.96;99748.72;5097914;27;20122;-40
2022/02/26 07:32:24;;;;;;;13.25;5.57;;;;;;;3.15;66.04;99745.31;5122987;27;20103;-41
2022/02/26 07:34:50;;;;;;;9.57;4.68;;;;;;;3.15;65.83;99747.88;5115147;27;20035;-41
2022/02/26 07:37:16;;;;;;;12.07;5.43;;;;;;;3.26;66.11;99758.97;5134075;27;20439;-41
2022/02/26 07:39:41;;;;;;;8.90;3.97;;;;;;;3.26;65.68;99763.25;5107248;28;20031;-41
2022/02/26 07:42:07;;;;;;;10.55;4.32;;;;;;;3.05;65.90;99745.34;5115851;27;20475;-42
2022/02/26 07:44:33;;;;;;;16.10;5.90;;;;;;;3.17;66.15;99774.44;5094950;28;20513;-42
2022/02/26 07:47:00;;;;;;;12.13;5.55;;;;;;;3.07;66.35;99764.19;5111980;27;20081;-42
2022/02/26 07:49:26;;;;;;;13.10;5.05;;;;;;;3.14;66.49;99771.84;5114414;27;20034;-43
2022/02/26 07:51:51;;;;;;;11.32;4.95;;;;;;;3.18;65.87;99750.47;5115656;27;20050;-43
2022/02/26 07:54:17;;;;;;;9.50;5.10;;;;;;;3.36;65.77;99773.50;5098550;27;20047;-42
2022/02/26 07:56:43;;;;;;;11.70;5.05;;;;;;;3.39;65.34;99772.66;5120847;27;20121;-43
2022/02/26 07:59:09;;;;;;;16.38;5.57;;;;;;;3.41;65.53;99778.59;5113874;27;20038;-44
2022/02/26 08:01:35;;;;;;;15.15;5.97;;;;;;;3.40;65.78;99782.06;5115535;27;20046;-43
2022/02/26 08:04:00;;;;;;;9.27;3.92;;;;;;;3.50;65.54;99782.88;5133383;27;20063;-41
2022/02/26 08:06:26;;;;;;;13.48;5.22;;;;;;;3.36;65.48;99786.34;5134372;27;20084;-40
2022/02/26 08:08:52;;;;;;;10.93;4.95;;;;;;;3.33;65.94;99782.94;5103606;27;20038;-40
2022/02/26 08:11:18;;;;;;;14.40;4.95;;;;;;;3.35;65.80;99784.63;5118009;27;20534;-39
2022/02/26 08:13:44;;;;;;;9.45;4.47;;;;;;;3.31;65.71;99777.78;5109324;27;20046;-40
2022/02/26 08:16:09;;;;;;;10.65;4.57;;;;;;;3.24;65.44;99770.13;5133250;27;20051;-41
2022/02/26 08:18:35;;;;;;;9.02;4.13;;;;;;;3.22;65.78;99776.97;5114949;27;20125;-42
2022/02/26 08:21:02;;;;;;;9.65;5.18;;;;;;;3.12;65.93;99755.59;5115490;27;20081;-40
2022/02/26 08:23:27;;;;;;;10.68;4.82;;;;;;;3.24;65.79;99773.56;5100434;28;20042;-40
2022/02/26 08:25:53;;;;;;;11.05;4.80;;;;;;;3.31;65.82;99779.50;5096604;27;20034;-42
2022/02/26 08:28:19;;;;;;;7.80;4.00;;;;;;;3.30;65.66;99767.50;5132958;27;20104;-42
2022/02/26 08:30:45;;;;;;;17.65;4.78;;;;;;;3.24;65.74;99771.00;5115266;27;20126;-40
2022/02/26 08:33:11;;;;;;;11.35;4.40;;;;;;;3.36;65.61;99778.63;5114784;27;20451;-40
2022/02/26 08:35:36;;;;;;;8.50;4.20;;;;;;;3.42;65.26;99781.19;5133368;27;20039;-40
2022/02/26 08:38:04;;;;;;;9.35;5.70;;;;;;;3.51;65.23;99785.41;5114629;27;20587;-41
2022/02/26 08:40:30;;;;;;;11.13;4.57;;;;;;;3.56;65.19;99781.09;5132592;27;20043;-40
2022/02/26 08:42:55;;;;;;;14.48;5.05;;;;;;;3.66;65.05;99784.53;5102689;28;20040;-40
2022/02/26 08:45:21;;;;;;;9.98;5.10;;;;;;;3.80;64.61;99787.88;5129597;27;20046;-40
2022/02/26 08:47:47;;;;;;;11.60;5.40;;;;;;;3.97;64.13;99791.19;5080014;27;20235;-41
2022/02/26 08:50:16;;;;;;;8.45;3.85;;;;;;;3.92;63.72;99794.66;5113334;27;20522;-41
2022/02/26 08:52:42;;;;;;;12.25;4.60;;;;;;;3.83;64.06;99790.41;5130100;27;20042;-41
2022/02/26 08:55:09;;;;;;;8.38;4.30;;;;;;;3.75;64.19;99792.19;5116744;27;20069;-41
2022/02/26 08:57:35;;;;;;;8.23;4.18;;;;;;;3.63;64.58;99785.38;5096817;27;20524;-40
2022/02/26 09:00:01;;;;;;;9.07;4.28;;;;;;;3.68;64.70;99793.91;5114436;27;20078;-42
2022/02/26 09:02:26;;;;;;;7.10;4.43;;;;;;;3.63;64.34;99781.94;5128763;27;20103;-40
2022/02/26 09:04:52;;;;;;;7.25;3.63;;;;;;;3.93;63.95;99784.34;5130561;27;20062;-40
2022/02/26 09:07:18;;;;;;;9.50;4.05;;;;;;;3.97;63.78;99783.47;5097352;27;20050;-40
2022/02/26 09:09:44;;;;;;;9.40;4.65;;;;;;;4.08;63.75;99796.28;5132238;27;20031;-40
2022/02/26 09:12:09;;;;;;;11.45;5.10;;;;;;;4.21;63.18;99790.16;5113672;27;20494;-40
2022/02/26 09:14:35;;;;;;;9.40;4.38;;;;;;;4.29;63.24;99788.41;5130852;27;20051;-42
2022/02/26 09:17:01;;;;;;;10.63;4.07;;;;;;;4.34;62.21;99799.53;5132250;27;20043;-41
2022/02/26 09:19:27;;;;;;;13.32;4.63;;;;;;;4.32;62.66;99801.25;5113965;27;20043;-42
2022/02/26 09:21:52;;;;;;;7.93;3.78;;;;;;;4.27;62.83;99805.56;5109819;28;20495;-41
2022/02/26 09:24:21;;;;;;;8.45;3.80;;;;;;;4.23;62.37;99806.47;5123094;27;20042;-40
2022/02/26 09:26:47;;;;;;;8.88;4.28;;;;;;;4.17;62.48;99807.38;5131715;27;20039;-40
2022/02/26 09:29:14;;;;;;;8.35;4.13;;;;;;;4.18;62.52;99814.22;5132401;27;20042;-42
2022/02/26 09:31:41;;;;;;;8.68;4.05;;;;;;;4.25;62.32;99818.44;5113280;27;20042;-41
2022/02/26 09:34:09;;;;;;;12.18;4.13;;;;;;;4.23;62.29;99817.63;5113451;27;20076;-41
2022/02/26 09:36:35;;;;;;;13.90;4.43;;;;;;;4.14;62.69;99814.22;5136377;27;20038;-41
2022/02/26 09:39:00;;;;;;;8.68;3.97;;;;;;;4.20;62.87;99824.47;5132771;27;20096;-41
2022/02/26 09:41:26;;;;;;;6.40;3.13;;;;;;;4.13;62.46;99822.84;5131455;27;20042;-42
2022/02/26 09:43:54;;;;;;;11.43;4.03;;;;;;;4.01;63.10;99817.75;5131332;27;20075;-41
2022/02/26 09:46:21;;;;;;;19.52;4.03;;;;;;;4.12;63.06;99819.41;5112870;27;20038;-41
2022/02/26 09:48:47;;;;;;;8.65;4.22;;;;;;;4.15;62.87;99813.38;5118044;27;20067;-41
2022/02/26 09:51:13;;;;;;;14.68;4.22;;;;;;;4.06;63.11;99806.56;5114297;27;20089;-41
2022/02/26 09:53:42;;;;;;;15.77;3.42;;;;;;;4.26;62.86;99827.88;5113591;27;20064;-40
2022/02/26 09:56:07;;;;;;;10.55;3.85;;;;;;;4.15;62.81;99811.66;5092853;28;20077;-40
2022/02/26 09:58:33;;;;;;;10.20;3.58;;;;;;;4.17;62.69;99830.53;5139132;27;20041;-40
2022/02/26 10:00:58;;;;;;;10.95;4.00;;;;;;;4.13;62.78;99833.13;5102476;27;20087;-39
2022/02/26 10:03:31;;;;;;;11.57;4.22;;;;;;;4.15;62.65;99826.22;5103645;27;20146;-40
2022/02/26 10:06:17;;;;;;;12.25;4.05;;;;;;;4.25;62.76;99827.88;5138272;27;20062;-40
2022/02/26 10:08:48;;;;;;;11.20;4.40;;;;;;;4.24;62.85;99829.59;5134610;27;20528;-41
2022/02/26 10:11:29;;;;;;;12.25;4.45;;;;;;;4.48;62.71;99843.19;5130884;28;20403;-42
2022/02/26 10:14:09;;;;;;;7.63;4.20;;;;;;;4.62;62.08;99834.47;5130843;28;20043;-41
2022/02/26 10:16:53;;;;;;;10.75;4.55;;;;;;;4.51;61.84;99840.56;5095851;28;20035;-40
2022/02/26 10:19:24;;;;;;;8.27;3.65;;;;;;;4.53;61.92;99836.28;5131108;28;20421;-41
2022/02/26 10:21:52;;;;;;;15.38;3.88;;;;;;;4.55;62.06;99842.28;5131761;28;20039;-40
2022/02/26 10:24:17;;;;;;;9.23;2.88;;;;;;;4.64;61.65;99842.19;5095734;28;20543;-40
2022/02/26 10:26:49;;;;;;;8.27;3.58;;;;;;;4.55;61.84;99843.09;5111512;28;20039;-40
2022/02/26 10:29:18;;;;;;;7.65;3.40;;;;;;;4.52;61.31;99842.28;5113123;28;20130;-41
2022/02/26 10:31:55;;;;;;;5.60;3.13;;;;;;;4.57;61.48;99846.53;5136478;27;20075;-41
2022/02/26 10:34:28;;;;;;;8.18;3.28;;;;;;;4.62;61.17;99854.22;5103159;28;20111;-40
2022/02/26 10:37:05;;;;;;;7.72;3.08;;;;;;;4.61;61.26;99855.06;5111240;28;20039;-40
2022/02/26 10:39:33;;;;;;;8.60;3.50;;;;;;;4.66;60.98;99854.16;5130896;28;20043;-39
2022/02/26 10:42:00;;;;;;;6.95;3.30;;;;;;;4.66;60.94;99855.88;5111695;28;20139;-40
2022/02/26 10:44:26;;;;;;;8.25;3.55;;;;;;;4.73;60.81;99854.13;5120193;28;20510;-40
2022/02/26 10:46:52;;;;;;;13.13;3.58;;;;;;;4.78;60.58;99854.94;5112979;28;20043;-39
2022/02/26 10:49:19;;;;;;;8.27;3.17;;;;;;;4.85;60.43;99854.91;5138769;27;20145;-39
2022/02/26 10:51:46;;;;;;;6.80;2.60;;;;;;;4.83;60.10;99856.63;5134121;27;20031;-40
2022/02/26 10:54:23;;;;;;;6.82;2.90;;;;;;;4.74;59.69;99855.84;5130930;28;20042;-40
2022/02/26 10:56:50;;;;;;;7.32;3.10;;;;;;;5.06;59.19;99844.41;5114727;28;20035;-39
2022/02/26 10:59:34;;;;;;;9.30;3.03;;;;;;;6.66;56.53;99857.84;5133580;27;20035;-40
2022/02/26 11:02:06;;;;;;;7.63;2.95;;;;;;;8.85;52.39;99847.38;5095364;28;20122;-40
2022/02/26 11:04:32;;;;;;;7.13;2.90;;;;;;;10.69;48.87;99851.69;5121997;28;20433;-40
2022/02/26 11:06:59;;;;;;;9.18;3.22;;;;;;;11.65;45.04;99844.03;5131064;28;20043;-39
2022/02/26 11:09:25;;;;;;;9.02;3.40;;;;;;;12.31;43.84;99845.91;5129481;28;20039;-39
2022/02/26 11:11:51;;;;;;;6.53;3.47;;;;;;;13.65;42.58;99854.28;5114622;28;20080;-41
2022/02/26 11:14:21;;;;;;;7.55;4.00;;;;;;;14.21;38.49;99854.31;5131861;27;20027;-41
2022/02/26 11:16:49;;;;;;;6.53;3.15;;;;;;;14.42;38.91;99855.09;5116264;27;20035;-39
2022/02/26 11:19:19;;;;;;;5.97;3.10;;;;;;;14.99;37.16;99861.06;5133375;27;20039;-41
2022/02/26 11:21:47;;;;;;;5.97;3.03;;;;;;;14.72;37.39;99860.63;5133176;27;20310;-39
2022/02/26 11:24:15;;;;;;;7.40;3.03;;;;;;;15.32;35.74;99864.59;5127759;27;20034;-41
2022/02/26 11:26:41;;;;;;;7.17;3.00;;;;;;;16.29;34.65;99872.56;5130547;27;20086;-41
2022/02/26 11:29:07;;;;;;;3.88;2.40;;;;;;;15.64;32.92;99855.13;5095497;28;20067;-40
2022/02/26 11:32:05;;;;;;;5.95;3.40;;;;;;;15.53;34.10;99867.94;5120749;27;20050;-40
2022/02/26 11:34:32;;;;;;;11.17;3.83;;;;;;;15.85;33.43;99867.09;5096217;28;20461;-41